Huvudsida
METAR-TAF:

METAR-TAF

Flygplatser :

Curaçaos internationella flygplats

Curaçao, Nederländska Antillerna

latitud: 12-12N, longitud: 068-58W, höjd: 9 m

Aktuellt väderrapport

Denna rapport gjordes för 36 minuter sedan, klockan 11:00 UTC
Vind 14 kt från ost/sydost
Temperatur 27°C
Fuktighet 79%
Tryck 1015 hPa

METAR: TNCC 241100Z AUTO 11014KT //// NCD 27/23 Q1015 NOSIG

Tid: 07:36 (11:36 UTC)

Väderprognos

Denna rapport gjordes för 1 timme och 36 minuter sedan, klockan 10:00 UTC
Prognos gäller från 24 kl. 12 UTC till 25 kl. 12 UTC
Vind 15 kt från ost
Sikt 10 km eller mer
Spridda moln på en höjd av 2000 ft

TAF: TNCC 241000Z 2412/2512 10015KT 9999 SCT020

Aktuella väderrapporter och prognoser från 4000 flygplatser (METAR- och TAF-rapporter).

De tillgängliga stationerna syns som gula och röda prickar på kartan.

För musen över prickarna för att se namnen på stationerna.

Klicka sedan för att få väderrapporter och prognoser.

För att ändra kartan: Klicka på de gröna knapparna med ett svart kors på för att zooma in; den gröna knappen med ett streck på för att zooma ut; eller på de gröna pilarna för angränsande kartor.


METAR-TAF: